createdAt,value
2017-01-12T00:00:15.813Z,4.50
2017-01-12T00:01:18.622Z,4.47
2017-01-12T00:02:16.940Z,4.35
2017-01-12T00:02:43.459Z,4.31
2017-01-12T00:03:13.787Z,4.31
2017-01-12T00:03:45.069Z,4.31
2017-01-12T00:04:38.170Z,4.29
2017-01-12T00:04:59.922Z,4.25
2017-01-12T00:05:24.401Z,4.23
2017-01-12T00:06:52.224Z,4.26
2017-01-12T00:08:52.736Z,4.23
2017-01-12T00:09:18.391Z,4.17
2017-01-12T00:11:48.320Z,4.23
2017-01-12T00:12:10.698Z,4.27
2017-01-12T00:12:32.432Z,4.28
2017-01-12T00:13:26.646Z,4.23
2017-01-12T00:13:53.151Z,4.30
2017-01-12T00:14:19.673Z,4.31
2017-01-12T00:14:51.954Z,4.26
2017-01-12T00:15:18.696Z,4.23
2017-01-12T00:16:27.115Z,4.29
2017-01-12T00:16:53.466Z,4.33
2017-01-12T00:17:17.223Z,4.34
2017-01-12T00:17:43.525Z,4.33
2017-01-12T00:18:37.577Z,4.23
2017-01-12T00:18:59.311Z,4.19
2017-01-12T00:19:25.848Z,4.18
2017-01-12T00:19:52.578Z,4.17
2017-01-12T00:20:19.112Z,4.16
2017-01-12T00:20:42.879Z,4.18
2017-01-12T00:22:02.350Z,4.17
2017-01-12T00:23:18.983Z,4.13
2017-01-12T00:23:46.241Z,4.12
2017-01-12T00:25:01.270Z,4.14
2017-01-12T00:26:02.068Z,4.13
2017-01-12T00:27:01.414Z,4.15
2017-01-12T00:27:23.107Z,4.16
2017-01-12T00:27:48.911Z,4.16
2017-01-12T00:28:18.331Z,4.13
2017-01-12T00:29:13.920Z,4.11
2017-01-12T00:30:17.455Z,4.03
2017-01-12T00:30:43.981Z,4.00
2017-01-12T00:31:15.285Z,3.97
2017-01-12T00:31:47.567Z,3.95
2017-01-12T00:32:10.323Z,3.95
2017-01-12T00:32:33.107Z,3.99
2017-01-12T00:33:09.141Z,3.95
2017-01-12T00:33:35.385Z,3.95
2017-01-12T00:34:03.267Z,3.97
2017-01-12T00:34:26.049Z,3.97
2017-01-12T00:35:17.304Z,4.00
2017-01-12T00:35:43.474Z,4.06
2017-01-12T00:36:19.502Z,4.06
2017-01-12T00:36:51.551Z,4.02
2017-01-12T00:37:16.255Z,3.98
2017-01-12T00:37:42.742Z,3.97
2017-01-12T00:38:09.857Z,3.97
2017-01-12T00:38:31.596Z,3.96
2017-01-12T00:38:58.111Z,3.92
2017-01-12T00:39:20.880Z,3.94
2017-01-12T00:39:43.609Z,3.93
2017-01-12T00:40:06.770Z,3.96
2017-01-12T00:40:28.534Z,3.95
2017-01-12T00:41:24.562Z,3.91
2017-01-12T00:41:51.067Z,3.92
2017-01-12T00:42:13.819Z,3.90
2017-01-12T00:42:40.338Z,3.89
2017-01-12T00:43:09.624Z,3.88
2017-01-12T00:44:09.921Z,3.91
2017-01-12T00:44:32.664Z,3.93
2017-01-12T00:45:03.096Z,3.92
2017-01-12T00:45:35.240Z,3.93
2017-01-12T00:45:57.186Z,3.98
2017-01-12T00:46:19.937Z,3.96
2017-01-12T00:47:44.760Z,3.92
2017-01-12T00:48:41.521Z,3.84
2017-01-12T00:49:03.274Z,3.81
2017-01-12T00:49:29.814Z,3.83
2017-01-12T00:49:54.544Z,3.83
2017-01-12T00:50:16.306Z,3.81
2017-01-12T00:50:43.182Z,3.79
2017-01-12T00:51:09.358Z,3.77
2017-01-12T00:51:34.807Z,3.75
2017-01-12T00:52:28.846Z,3.75
2017-01-12T00:52:55.358Z,3.75
2017-01-12T00:54:03.787Z,3.73
2017-01-12T00:54:29.607Z,3.74
2017-01-12T00:54:53.908Z,3.73
2017-01-12T00:55:19.278Z,3.72
2017-01-12T00:56:38.915Z,3.68
2017-01-12T00:57:12.768Z,3.68
2017-01-12T00:57:41.279Z,3.72
2017-01-12T00:58:06.237Z,3.71
2017-01-12T00:59:15.585Z,3.65
2017-01-12T00:59:37.345Z,3.63
2017-01-12T01:00:08.625Z,3.60
2017-01-12T01:00:30.362Z,3.60
2017-01-12T01:00:55.115Z,3.59
2017-01-12T01:01:19.667Z,3.59
2017-01-12T01:01:42.425Z,3.58
2017-01-12T01:03:24.128Z,3.54
2017-01-12T01:04:23.911Z,3.49
2017-01-12T01:05:39.687Z,3.46
2017-01-12T01:07:07.229Z,3.39
2017-01-12T01:07:29.964Z,3.39
2017-01-12T01:08:24.010Z,3.38
2017-01-12T01:08:48.736Z,3.38
2017-01-12T01:09:15.242Z,3.36
2017-01-12T01:10:32.321Z,3.34
2017-01-12T01:11:37.079Z,3.29
2017-01-12T01:11:59.827Z,3.29
2017-01-12T01:12:22.573Z,3.28
2017-01-12T01:12:50.086Z,3.28
2017-01-12T01:13:40.353Z,3.26
2017-01-12T01:14:06.852Z,3.26
2017-01-12T01:15:05.139Z,3.26
2017-01-12T01:15:53.396Z,3.27
2017-01-12T01:16:16.157Z,3.28
2017-01-12T01:18:33.131Z,3.27
2017-01-12T01:18:59.648Z,3.28
2017-01-12T01:19:56.126Z,3.27
2017-01-12T01:20:22.634Z,3.28
2017-01-12T01:20:46.422Z,3.27
2017-01-12T01:21:12.935Z,3.27
2017-01-12T01:21:40.457Z,3.28
2017-01-12T01:22:08.445Z,3.28
2017-01-12T01:23:45.827Z,3.27
2017-01-12T01:24:18.109Z,3.29
2017-01-12T01:24:42.444Z,3.27
2017-01-12T01:25:04.183Z,3.27
2017-01-12T01:25:26.930Z,3.27
2017-01-12T01:25:48.767Z,3.29
2017-01-12T01:26:10.514Z,3.29
2017-01-12T01:26:33.252Z,3.29
2017-01-12T01:27:00.802Z,3.29
2017-01-12T01:28:17.619Z,3.35
2017-01-12T01:29:05.917Z,3.36
2017-01-12T01:29:37.187Z,3.36
2017-01-12T01:30:25.445Z,3.35
2017-01-12T01:31:42.518Z,3.35
2017-01-12T01:32:04.260Z,3.35
2017-01-12T01:32:28.007Z,3.35
2017-01-12T01:32:49.757Z,3.38
2017-01-12T01:34:19.810Z,3.45
2017-01-12T01:34:42.543Z,3.47
2017-01-12T01:39:36.099Z,3.71
2017-01-12T01:39:57.865Z,3.72
2017-01-12T01:40:24.384Z,3.72
2017-01-12T01:40:53.760Z,3.71
2017-01-12T01:41:47.773Z,3.73
2017-01-12T01:42:10.515Z,3.78
2017-01-12T01:42:38.042Z,3.80
2017-01-12T01:43:02.989Z,3.83
2017-01-12T01:43:29.504Z,3.82
2017-01-12T01:43:56.007Z,3.81
2017-01-12T01:45:28.065Z,3.97
2017-01-12T01:45:49.810Z,3.97
2017-01-12T01:46:17.319Z,3.94
2017-01-12T01:47:35.656Z,3.94
2017-01-12T01:48:02.171Z,3.91
2017-01-12T01:48:24.914Z,3.92
2017-01-12T01:48:48.667Z,3.92
2017-01-12T01:49:17.592Z,3.97
2017-01-12T01:50:15.415Z,3.99
2017-01-12T01:50:42.997Z,4.02
2017-01-12T01:51:12.325Z,4.03
2017-01-12T01:51:34.101Z,4.02
2017-01-12T01:51:55.844Z,4.02
2017-01-12T01:52:22.360Z,4.05
2017-01-12T01:52:51.474Z,4.02
2017-01-12T01:53:17.999Z,4.03
2017-01-12T01:54:13.580Z,4.08
2017-01-12T01:54:35.336Z,4.10
2017-01-12T01:55:30.376Z,4.10
2017-01-12T01:55:52.139Z,4.12
2017-01-12T01:56:21.298Z,4.11
2017-01-12T01:58:25.056Z,4.09
2017-01-12T01:58:51.573Z,4.08
2017-01-12T01:59:22.854Z,4.08
2017-01-12T01:59:47.439Z,4.07
2017-01-12T02:00:11.183Z,4.10
2017-01-12T02:00:32.934Z,4.15
2017-01-12T02:00:54.679Z,4.16
2017-01-12T02:01:21.196Z,4.17
2017-01-12T02:01:45.152Z,4.16
2017-01-12T02:02:06.909Z,4.14
2017-01-12T02:02:29.651Z,4.14
2017-01-12T02:02:57.162Z,4.15
2017-01-12T02:03:50.176Z,4.14
2017-01-12T02:04:12.135Z,4.14
2017-01-12T02:05:05.955Z,4.07
2017-01-12T02:05:37.236Z,4.06
2017-01-12T02:06:09.512Z,4.06
2017-01-12T02:06:36.049Z,4.06
2017-01-12T02:07:07.319Z,4.03
2017-01-12T02:07:31.885Z,4.02
2017-01-12T02:07:58.387Z,4.01
2017-01-12T02:08:25.917Z,3.97
2017-01-12T02:09:18.929Z,4.05
2017-01-12T02:09:45.440Z,4.05
2017-01-12T02:10:33.716Z,4.02
2017-01-12T02:11:26.747Z,4.01
2017-01-12T02:11:51.453Z,4.02
2017-01-12T02:12:19.569Z,4.00
2017-01-12T02:12:41.300Z,3.99
2017-01-12T02:13:16.561Z,3.95
2017-01-12T02:13:38.302Z,3.93
2017-01-12T02:14:33.223Z,3.89
2017-01-12T02:14:54.970Z,3.88
2017-01-12T02:15:17.725Z,3.86
2017-01-12T02:15:40.679Z,3.86
2017-01-12T02:16:09.944Z,3.83
2017-01-12T02:16:34.161Z,3.82
2017-01-12T02:16:55.904Z,3.79
2017-01-12T02:17:25.131Z,3.78
2017-01-12T02:17:49.783Z,3.79
2017-01-12T02:18:18.715Z,3.77
2017-01-12T02:19:13.765Z,3.76
2017-01-12T02:20:03.007Z,3.74
2017-01-12T02:20:26.142Z,3.74
2017-01-12T02:20:52.644Z,3.76
2017-01-12T02:21:47.457Z,3.70
2017-01-12T02:22:13.898Z,3.70
2017-01-12T02:22:37.626Z,3.67
2017-01-12T02:23:04.136Z,3.64
2017-01-12T02:23:26.887Z,3.63
2017-01-12T02:24:16.195Z,3.61
2017-01-12T02:25:18.811Z,3.57
2017-01-12T02:25:49.532Z,3.54
2017-01-12T02:26:46.411Z,3.53
2017-01-12T02:27:14.929Z,3.51
2017-01-12T02:27:42.051Z,3.50
2017-01-12T02:28:08.562Z,3.48
2017-01-12T02:28:33.336Z,3.46
2017-01-12T02:28:55.193Z,3.45
2017-01-12T02:29:22.518Z,3.43
2017-01-12T02:32:24.079Z,3.36
2017-01-12T02:32:48.544Z,3.37
2017-01-12T02:33:18.857Z,3.35
2017-01-12T02:33:43.250Z,3.35
2017-01-12T02:35:08.979Z,3.32
2017-01-12T02:35:31.708Z,3.32
2017-01-12T02:35:58.211Z,3.34
2017-01-12T02:36:19.957Z,3.32
2017-01-12T02:36:48.473Z,3.31
2017-01-12T02:38:29.895Z,3.28
2017-01-12T02:38:51.642Z,3.25
2017-01-12T02:39:14.425Z,3.24
2017-01-12T02:40:02.656Z,3.23
2017-01-12T02:40:29.168Z,3.22
2017-01-12T02:41:18.601Z,3.24
2017-01-12T02:41:40.348Z,3.22
2017-01-12T02:42:03.154Z,3.21
2017-01-12T02:43:17.927Z,3.22
2017-01-12T02:43:44.951Z,3.24
2017-01-12T02:44:43.709Z,3.21
2017-01-12T02:45:38.801Z,3.20
2017-01-12T02:47:35.562Z,3.20
2017-01-12T02:47:57.303Z,3.20
2017-01-12T02:48:58.637Z,3.18
2017-01-12T02:49:59.428Z,3.17
2017-01-12T02:50:21.193Z,3.17
2017-01-12T02:50:44.942Z,3.17
2017-01-12T02:51:06.694Z,3.17
2017-01-12T02:51:31.159Z,3.18
2017-01-12T02:52:31.399Z,3.19
2017-01-12T02:53:03.680Z,3.18
2017-01-12T02:53:28.113Z,3.19
2017-01-12T02:54:19.363Z,3.19
2017-01-12T02:54:41.140Z,3.17
2017-01-12T02:55:07.646Z,3.18
2017-01-12T02:55:37.475Z,3.18
2017-01-12T02:56:01.761Z,3.17
2017-01-12T02:56:54.777Z,3.16
2017-01-12T02:57:19.313Z,3.18
2017-01-12T02:58:14.995Z,3.16
2017-01-12T02:59:12.913Z,3.15
2017-01-12T03:00:08.104Z,3.12
2017-01-12T03:00:32.786Z,3.13
2017-01-12T03:00:59.290Z,3.15
2017-01-12T03:01:50.408Z,3.14
2017-01-12T03:02:38.664Z,3.14
2017-01-12T03:03:03.911Z,3.13
2017-01-12T03:03:25.697Z,3.12
2017-01-12T03:03:57.969Z,3.13
2017-01-12T03:04:22.445Z,3.14
2017-01-12T03:05:18.398Z,3.13
2017-01-12T03:05:41.544Z,3.13
2017-01-12T03:06:04.296Z,3.13
2017-01-12T03:06:36.260Z,3.10
2017-01-12T03:07:07.534Z,3.10
2017-01-12T03:07:41.547Z,3.08
2017-01-12T03:09:09.783Z,3.06
2017-01-12T03:09:32.518Z,3.06
2017-01-12T03:09:56.265Z,3.04
2017-01-12T03:10:27.363Z,3.05
2017-01-12T03:11:25.150Z,3.04
2017-01-12T03:11:46.905Z,3.03
2017-01-12T03:12:35.177Z,3.00
2017-01-12T03:13:06.645Z,3.00
2017-01-12T03:13:36.738Z,3.01
2017-01-12T03:13:58.492Z,3.00
2017-01-12T03:14:25.992Z,2.98
2017-01-12T03:14:51.324Z,2.98
2017-01-12T03:15:13.079Z,2.97
2017-01-12T03:15:37.478Z,2.96
2017-01-12T03:15:59.200Z,2.98
2017-01-12T03:16:25.701Z,2.96
2017-01-12T03:16:49.960Z,2.97
2017-01-12T03:17:11.717Z,2.98
2017-01-12T03:18:01.958Z,2.96
2017-01-12T03:18:23.697Z,2.96
2017-01-12T03:18:45.460Z,2.96
2017-01-12T03:19:07.204Z,2.94
2017-01-12T03:19:29.964Z,2.96
2017-01-12T03:19:51.705Z,2.98
2017-01-12T03:20:22.991Z,2.98
2017-01-12T03:20:53.449Z,2.99
2017-01-12T03:21:17.781Z,3.00
2017-01-12T03:21:45.090Z,3.00
2017-01-12T03:22:06.978Z,2.99
2017-01-12T03:22:33.487Z,2.97
2017-01-12T03:22:55.241Z,2.98
2017-01-12T03:23:29.071Z,2.96
2017-01-12T03:23:55.577Z,2.95
2017-01-12T03:24:48.603Z,2.98
2017-01-12T03:25:15.113Z,2.99
2017-01-12T03:25:41.939Z,2.96
2017-01-12T03:26:34.187Z,2.98
2017-01-12T03:27:00.703Z,2.96
2017-01-12T03:27:36.744Z,2.99
2017-01-12T03:27:59.361Z,3.00
2017-01-12T03:28:21.106Z,3.01
2017-01-12T03:28:43.851Z,3.01
2017-01-12T03:29:15.718Z,3.02
2017-01-12T03:29:43.238Z,3.03
2017-01-12T03:30:12.450Z,3.03
2017-01-12T03:31:35.184Z,3.07
2017-01-12T03:32:04.602Z,3.07
2017-01-12T03:32:29.804Z,3.07
2017-01-12T03:32:55.081Z,3.09
2017-01-12T03:33:24.120Z,3.10
2017-01-12T03:33:51.634Z,3.10
2017-01-12T03:34:20.650Z,3.08
2017-01-12T03:34:48.162Z,3.07
2017-01-12T03:35:14.677Z,3.05
2017-01-12T03:36:13.564Z,3.08
2017-01-12T03:36:37.194Z,3.07
2017-01-12T03:37:02.790Z,3.05
2017-01-12T03:37:24.664Z,3.06
2017-01-12T03:37:49.005Z,3.07
2017-01-12T03:38:15.513Z,3.08
2017-01-12T03:39:31.293Z,3.09
2017-01-12T03:40:29.683Z,3.09
2017-01-12T03:40:51.433Z,3.08
2017-01-12T03:41:17.938Z,3.09
2017-01-12T03:42:16.748Z,3.12
2017-01-12T03:42:46.451Z,3.14
2017-01-12T03:43:34.710Z,3.12
2017-01-12T03:43:57.575Z,3.15
2017-01-12T03:45:22.692Z,3.15
2017-01-12T03:45:49.223Z,3.15
2017-01-12T03:46:21.487Z,3.14
2017-01-12T03:46:51.492Z,3.14
2017-01-12T03:47:17.103Z,3.13
2017-01-12T03:47:43.619Z,3.12
2017-01-12T03:48:10.961Z,3.12
2017-01-12T03:49:03.178Z,3.16
2017-01-12T03:49:52.439Z,3.15
2017-01-12T03:50:51.005Z,3.11
2017-01-12T03:51:12.759Z,3.12
2017-01-12T03:51:39.268Z,3.13
2017-01-12T03:52:10.544Z,3.12
2017-01-12T03:52:38.046Z,3.12
2017-01-12T03:53:05.545Z,3.10
2017-01-12T03:53:36.640Z,3.12
2017-01-12T03:54:04.142Z,3.12
2017-01-12T03:54:28.409Z,3.12
2017-01-12T03:54:59.684Z,3.12
2017-01-12T03:55:22.438Z,3.12
2017-01-12T03:55:45.178Z,3.12
2017-01-12T03:56:16.457Z,3.12
2017-01-12T03:56:47.730Z,3.12
2017-01-12T03:57:14.249Z,3.10
2017-01-12T03:57:38.970Z,3.13
2017-01-12T03:58:32.007Z,3.12
2017-01-12T03:58:55.199Z,3.10
2017-01-12T03:59:21.705Z,3.09
2017-01-12T03:59:48.226Z,3.08
2017-01-12T04:00:14.724Z,3.09
2017-01-12T04:00:36.469Z,3.12
2017-01-12T04:00:58.228Z,3.14
2017-01-12T04:01:20.009Z,3.12
2017-01-12T04:01:41.771Z,3.12
2017-01-12T04:02:15.070Z,3.12
2017-01-12T04:02:44.244Z,3.10
2017-01-12T04:03:06.029Z,3.09
2017-01-12T04:03:38.302Z,3.09
2017-01-12T04:05:28.943Z,3.08
2017-01-12T04:06:00.210Z,3.06
2017-01-12T04:06:31.484Z,3.07
2017-01-12T04:06:56.246Z,3.07
2017-01-12T04:07:27.518Z,3.10
2017-01-12T04:07:54.033Z,3.10
2017-01-12T04:08:18.701Z,3.09
2017-01-12T04:08:45.212Z,3.07
2017-01-12T04:09:08.091Z,3.06
2017-01-12T04:09:31.707Z,3.06
2017-01-12T04:09:58.559Z,3.05
2017-01-12T04:10:21.384Z,3.06
2017-01-12T04:11:12.549Z,3.05
2017-01-12T04:11:39.062Z,3.06
2017-01-12T04:12:01.804Z,3.06
2017-01-12T04:12:34.077Z,3.07
2017-01-12T04:13:22.332Z,3.08
2017-01-12T04:13:49.052Z,3.06
2017-01-12T04:14:15.571Z,3.06
2017-01-12T04:14:38.303Z,3.07
2017-01-12T04:15:02.776Z,3.08
2017-01-12T04:15:24.520Z,3.08
2017-01-12T04:15:55.799Z,3.09
2017-01-12T04:16:56.113Z,3.08
2017-01-12T04:17:23.614Z,3.07
2017-01-12T04:17:50.143Z,3.07
2017-01-12T04:18:17.328Z,3.04
2017-01-12T04:18:43.837Z,3.02
2017-01-12T04:19:05.602Z,3.03
2017-01-12T04:19:29.345Z,3.02
2017-01-12T04:20:23.369Z,3.02
2017-01-12T04:21:28.872Z,3.04
2017-01-12T04:22:00.144Z,3.06
2017-01-12T04:22:23.484Z,3.07
2017-01-12T04:22:50.037Z,3.07
2017-01-12T04:23:11.786Z,3.08
2017-01-12T04:23:33.731Z,3.08
2017-01-12T04:23:55.471Z,3.09
2017-01-12T04:24:17.209Z,3.08
2017-01-12T04:24:43.728Z,3.08
2017-01-12T04:25:08.458Z,3.09
2017-01-12T04:25:32.794Z,3.09
2017-01-12T04:25:59.314Z,3.10
2017-01-12T04:26:21.052Z,3.13
2017-01-12T04:26:43.805Z,3.13
2017-01-12T04:27:05.549Z,3.15
2017-01-12T04:28:09.366Z,3.11
2017-01-12T04:28:31.116Z,3.12
2017-01-12T04:28:55.585Z,3.10
2017-01-12T04:29:22.090Z,3.09
2017-01-12T04:29:43.834Z,3.09
2017-01-12T04:30:05.585Z,3.12
2017-01-12T04:30:37.856Z,3.12
2017-01-12T04:30:59.593Z,3.14
2017-01-12T04:31:26.107Z,3.15
2017-01-12T04:31:47.884Z,3.15
2017-01-12T04:32:20.155Z,3.15
2017-01-12T04:32:41.930Z,3.15
2017-01-12T04:33:09.636Z,3.14
2017-01-12T04:34:11.818Z,3.14
2017-01-12T04:34:39.347Z,3.13
2017-01-12T04:35:07.494Z,3.14
2017-01-12T04:35:38.788Z,3.12
2017-01-12T04:36:05.293Z,3.12
2017-01-12T04:36:27.062Z,3.10
2017-01-12T04:36:50.800Z,3.10
2017-01-12T04:37:12.650Z,3.12
2017-01-12T04:37:38.208Z,3.11
2017-01-12T04:38:00.971Z,3.14
2017-01-12T04:38:36.983Z,3.18
2017-01-12T04:39:07.008Z,3.16
2017-01-12T04:40:02.612Z,3.16
2017-01-12T04:40:26.354Z,3.15
2017-01-12T04:41:47.900Z,3.15
2017-01-12T04:42:18.277Z,3.16
2017-01-12T04:42:45.608Z,3.17
2017-01-12T04:43:13.242Z,3.19
2017-01-12T04:44:11.119Z,3.22
2017-01-12T04:44:32.868Z,3.22
2017-01-12T04:45:26.877Z,3.19
2017-01-12T04:45:58.160Z,3.19
2017-01-12T04:46:19.920Z,3.19
2017-01-12T04:46:51.205Z,3.18
2017-01-12T04:47:48.793Z,3.18
2017-01-12T04:48:14.727Z,3.18
2017-01-12T04:48:44.266Z,3.17
2017-01-12T04:50:04.848Z,3.18
2017-01-12T04:50:54.123Z,3.16
2017-01-12T04:51:15.859Z,3.17
2017-01-12T04:51:38.631Z,3.15
2017-01-12T04:53:33.455Z,3.15
2017-01-12T04:53:56.203Z,3.14
2017-01-12T04:54:21.132Z,3.13
2017-01-12T04:54:42.867Z,3.13
2017-01-12T04:55:34.105Z,3.19
2017-01-12T04:56:05.380Z,3.19
2017-01-12T04:56:30.893Z,3.21
2017-01-12T04:56:53.662Z,3.21
2017-01-12T04:57:18.521Z,3.21
2017-01-12T04:57:43.259Z,3.23
2017-01-12T04:58:10.756Z,3.26
2017-01-12T04:58:59.045Z,3.24
2017-01-12T04:59:49.325Z,3.21
2017-01-12T05:00:13.680Z,3.20
2017-01-12T05:00:38.321Z,3.17
2017-01-12T05:01:00.071Z,3.16
2017-01-12T05:01:37.103Z,3.15
2017-01-12T05:02:00.498Z,3.18
2017-01-12T05:02:22.384Z,3.19
2017-01-12T05:03:19.040Z,3.23
2017-01-12T05:04:07.320Z,3.23
2017-01-12T05:05:09.901Z,3.24
2017-01-12T05:05:32.851Z,3.25
2017-01-12T05:06:37.148Z,3.25
2017-01-12T05:07:04.697Z,3.24
2017-01-12T05:07:31.024Z,3.29
2017-01-12T05:08:27.590Z,3.29
2017-01-12T05:08:49.333Z,3.28
2017-01-12T05:09:14.040Z,3.28
2017-01-12T05:09:46.310Z,3.24
2017-01-12T05:10:09.450Z,3.22
2017-01-12T05:10:31.205Z,3.21
2017-01-12T05:11:29.023Z,3.19
2017-01-12T05:11:51.788Z,3.23
2017-01-12T05:12:13.536Z,3.22
2017-01-12T05:12:45.835Z,3.20
2017-01-12T05:13:46.652Z,3.21
2017-01-12T05:14:18.172Z,3.20
2017-01-12T05:14:44.684Z,3.21
2017-01-12T05:15:48.739Z,3.23
2017-01-12T05:16:15.451Z,3.23
2017-01-12T05:16:41.971Z,3.25
2017-01-12T05:17:37.001Z,3.26
2017-01-12T05:18:40.544Z,3.29
2017-01-12T05:19:07.066Z,3.28
2017-01-12T05:19:33.578Z,3.27
2017-01-12T05:19:55.343Z,3.29
2017-01-12T05:20:17.085Z,3.31
2017-01-12T05:20:40.170Z,3.30
2017-01-12T05:21:01.885Z,3.30
2017-01-12T05:21:23.635Z,3.32
2017-01-12T05:21:45.383Z,3.31
2017-01-12T05:22:40.407Z,3.30
2017-01-12T05:23:02.594Z,3.30
2017-01-12T05:23:57.603Z,3.34
2017-01-12T05:24:24.125Z,3.34
2017-01-12T05:25:21.703Z,3.36
2017-01-12T05:25:48.015Z,3.34
2017-01-12T05:26:15.732Z,3.32
2017-01-12T05:26:37.476Z,3.37
2017-01-12T05:27:02.007Z,3.35
2017-01-12T05:27:28.514Z,3.35
2017-01-12T05:27:52.767Z,3.37
2017-01-12T05:28:19.291Z,3.39
2017-01-12T05:28:45.799Z,3.41
2017-01-12T05:29:07.535Z,3.41
2017-01-12T05:30:02.560Z,3.39
2017-01-12T05:30:28.842Z,3.41
2017-01-12T05:30:55.347Z,3.42
2017-01-12T05:31:18.096Z,3.41
2017-01-12T05:31:39.853Z,3.43
2017-01-12T05:32:38.654Z,3.44
2017-01-12T05:33:14.692Z,3.44
2017-01-12T05:33:43.148Z,3.45
2017-01-12T05:34:04.891Z,3.47
2017-01-12T05:34:26.625Z,3.46
2017-01-12T05:34:48.372Z,3.45
2017-01-12T05:35:10.121Z,3.49
2017-01-12T05:35:31.892Z,3.50
2017-01-12T05:35:54.644Z,3.52
2017-01-12T05:36:26.924Z,3.55
2017-01-12T05:36:49.671Z,3.53
2017-01-12T05:37:14.012Z,3.52
2017-01-12T05:37:41.524Z,3.49
2017-01-12T05:38:03.281Z,3.50
2017-01-12T05:38:27.547Z,3.50
2017-01-12T05:38:49.297Z,3.54
2017-01-12T05:39:13.446Z,3.55
2017-01-12T05:39:39.060Z,3.55
2017-01-12T05:40:32.042Z,3.55
2017-01-12T05:41:01.126Z,3.54
2017-01-12T05:41:32.528Z,3.54
2017-01-12T05:41:55.275Z,3.54
2017-01-12T05:42:26.561Z,3.54
2017-01-12T05:42:48.301Z,3.53
2017-01-12T05:43:14.814Z,3.55
2017-01-12T05:43:37.611Z,3.52
2017-01-12T05:43:59.366Z,3.55
2017-01-12T05:44:21.134Z,3.55
2017-01-12T05:44:42.904Z,3.54
2017-01-12T05:45:04.646Z,3.54
2017-01-12T05:45:28.909Z,3.55
2017-01-12T05:45:50.657Z,3.55
2017-01-12T05:47:37.735Z,3.63
2017-01-12T05:48:38.166Z,3.58
2017-01-12T05:49:02.848Z,3.60
2017-01-12T05:49:27.175Z,3.64
2017-01-12T05:49:54.471Z,3.65
2017-01-12T05:50:47.472Z,3.70
2017-01-12T05:51:12.075Z,3.71
2017-01-12T05:52:09.878Z,3.75
2017-01-12T05:52:34.166Z,3.73
2017-01-12T05:53:00.680Z,3.70
2017-01-12T05:53:31.983Z,3.71
2017-01-12T05:54:30.775Z,3.71
2017-01-12T05:54:58.299Z,3.72
2017-01-12T05:55:24.812Z,3.72
2017-01-12T05:55:49.235Z,3.74
2017-01-12T05:56:16.755Z,3.72
2017-01-12T05:57:20.394Z,3.78
2017-01-12T05:57:50.919Z,3.79
2017-01-12T05:58:48.710Z,3.78
2017-01-12T05:59:16.217Z,3.75
2017-01-12T05:59:37.996Z,3.75
2017-01-12T05:59:59.740Z,3.74
2017-01-12T06:00:22.484Z,3.75
2017-01-12T06:00:45.228Z,3.75
2017-01-12T06:01:11.727Z,3.77
2017-01-12T06:01:59.984Z,3.74
2017-01-12T06:02:26.495Z,3.70
2017-01-12T06:02:49.637Z,3.68
2017-01-12T06:03:16.125Z,3.71
2017-01-12T06:03:40.691Z,3.71
2017-01-12T06:04:07.475Z,3.67
2017-01-12T06:04:34.979Z,3.65
2017-01-12T06:04:56.770Z,3.66
2017-01-12T06:05:25.088Z,3.66
2017-01-12T06:05:51.581Z,3.65
2017-01-12T06:06:56.281Z,3.66
2017-01-12T06:07:27.550Z,3.68
2017-01-12T06:07:54.077Z,3.68
2017-01-12T06:08:22.044Z,3.68
2017-01-12T06:08:43.792Z,3.70
2017-01-12T06:09:15.879Z,3.68
2017-01-12T06:09:42.380Z,3.67
2017-01-12T06:10:04.133Z,3.67
2017-01-12T06:10:33.791Z,3.67
2017-01-12T06:10:55.525Z,3.66
2017-01-12T06:11:17.337Z,3.66
2017-01-12T06:12:05.808Z,3.62
2017-01-12T06:12:27.686Z,3.64
2017-01-12T06:12:54.186Z,3.64
2017-01-12T06:13:29.460Z,3.67
2017-01-12T06:13:52.208Z,3.66
2017-01-12T06:14:21.223Z,3.67
2017-01-12T06:14:42.886Z,3.66
2017-01-12T06:15:07.281Z,3.65
2017-01-12T06:15:33.796Z,3.64
2017-01-12T06:15:55.533Z,3.65
2017-01-12T06:16:17.296Z,3.64
2017-01-12T06:16:39.048Z,3.63
2017-01-12T06:17:05.565Z,3.66
2017-01-12T06:18:36.367Z,3.61
2017-01-12T06:18:59.119Z,3.63
2017-01-12T06:19:25.632Z,3.63
2017-01-12T06:19:50.081Z,3.64
2017-01-12T06:20:11.831Z,3.64
2017-01-12T06:20:45.994Z,3.63
2017-01-12T06:21:17.279Z,3.61
2017-01-12T06:22:20.138Z,3.57
2017-01-12T06:22:52.412Z,3.54
2017-01-12T06:23:17.681Z,3.53
2017-01-12T06:23:48.959Z,3.49
2017-01-12T06:24:15.465Z,3.46
2017-01-12T06:24:39.212Z,3.44
2017-01-12T06:25:27.482Z,3.43
2017-01-12T06:25:54.986Z,3.42
2017-01-12T06:27:39.522Z,3.36
2017-01-12T06:28:06.066Z,3.35
2017-01-12T06:28:38.343Z,3.34
2017-01-12T06:29:00.070Z,3.34
2017-01-12T06:29:21.816Z,3.33
2017-01-12T06:30:20.601Z,3.32
2017-01-12T06:30:42.364Z,3.33
2017-01-12T06:31:10.863Z,3.32
2017-01-12T06:31:33.623Z,3.30
2017-01-12T06:31:55.391Z,3.30
2017-01-12T06:32:21.897Z,3.30
2017-01-12T06:32:43.641Z,3.31
2017-01-12T06:33:45.161Z,3.31
2017-01-12T06:34:06.896Z,3.31
2017-01-12T06:35:07.642Z,3.30
2017-01-12T06:35:34.154Z,3.33
2017-01-12T06:36:36.519Z,3.31
2017-01-12T06:37:41.066Z,3.31
2017-01-12T06:38:07.572Z,3.30
2017-01-12T06:38:29.332Z,3.29
2017-01-12T06:38:52.085Z,3.29
2017-01-12T06:39:14.836Z,3.30
2017-01-12T06:39:36.598Z,3.31
2017-01-12T06:39:58.387Z,3.31
2017-01-12T06:40:30.678Z,3.30
2017-01-12T06:40:53.420Z,3.30
2017-01-12T06:41:24.692Z,3.32
2017-01-12T06:42:23.509Z,3.29
2017-01-12T06:42:45.244Z,3.29
2017-01-12T06:43:41.286Z,3.30
2017-01-12T06:45:00.824Z,3.32
2017-01-12T06:45:29.922Z,3.32
2017-01-12T06:45:51.721Z,3.33
2017-01-12T06:46:14.466Z,3.35
2017-01-12T06:46:36.248Z,3.34
2017-01-12T06:47:39.365Z,3.32
2017-01-12T06:48:02.113Z,3.30
2017-01-12T06:48:56.154Z,3.30
2017-01-12T06:50:04.546Z,3.35
2017-01-12T06:50:27.295Z,3.34
2017-01-12T06:51:24.849Z,3.34
2017-01-12T06:51:57.118Z,3.34
2017-01-12T06:52:33.154Z,3.34
2017-01-12T06:53:08.691Z,3.34
2017-01-12T06:53:31.459Z,3.34
2017-01-12T06:53:54.212Z,3.33
2017-01-12T06:54:21.757Z,3.35
2017-01-12T06:54:48.273Z,3.35
2017-01-12T06:55:10.013Z,3.38
2017-01-12T06:55:36.533Z,3.39
2017-01-12T06:56:02.865Z,3.39
2017-01-12T06:56:29.374Z,3.39
2017-01-12T06:56:59.731Z,3.42
2017-01-12T06:57:26.237Z,3.45
2017-01-12T06:57:49.971Z,3.46
2017-01-12T06:58:11.728Z,3.47
2017-01-12T06:58:40.244Z,3.46
2017-01-12T06:59:07.785Z,3.44
2017-01-12T06:59:40.073Z,3.47
2017-01-12T07:00:05.741Z,3.47
2017-01-12T07:00:27.506Z,3.48
2017-01-12T07:00:49.241Z,3.47
2017-01-12T07:01:43.255Z,3.49
2017-01-12T07:02:05.988Z,3.47
2017-01-12T07:02:27.733Z,3.48
2017-01-12T07:02:52.461Z,3.48
2017-01-12T07:03:48.467Z,3.46
2017-01-12T07:04:12.327Z,3.45
2017-01-12T07:04:34.146Z,3.45
2017-01-12T07:04:56.873Z,3.45
2017-01-12T07:05:23.394Z,3.45
2017-01-12T07:06:26.691Z,3.50
2017-01-12T07:07:37.450Z,3.52
2017-01-12T07:08:31.471Z,3.48
2017-01-12T07:08:53.232Z,3.46
2017-01-12T07:09:16.991Z,3.50
2017-01-12T07:09:44.485Z,3.51
2017-01-12T07:10:07.240Z,3.50
2017-01-12T07:11:17.489Z,3.53
2017-01-12T07:11:51.299Z,3.54
2017-01-12T07:12:18.818Z,3.54
2017-01-12T07:12:40.558Z,3.54
2017-01-12T07:13:31.842Z,3.54
2017-01-12T07:15:07.197Z,3.49
2017-01-12T07:15:33.781Z,3.51
2017-01-12T07:16:07.820Z,3.51
2017-01-12T07:16:29.556Z,3.49
2017-01-12T07:16:52.302Z,3.51
2017-01-12T07:17:14.049Z,3.53
2017-01-12T07:17:43.452Z,3.54
2017-01-12T07:18:11.771Z,3.55
2017-01-12T07:18:33.509Z,3.57
2017-01-12T07:18:55.256Z,3.59
2017-01-12T07:19:20.821Z,3.61
2017-01-12T07:19:43.567Z,3.61
2017-01-12T07:20:08.009Z,3.61
2017-01-12T07:20:39.314Z,3.58
2017-01-12T07:22:14.865Z,3.57
2017-01-12T07:23:12.473Z,3.59
2017-01-12T07:23:34.217Z,3.60
2017-01-12T07:23:59.628Z,3.58
2017-01-12T07:25:01.608Z,3.59
2017-01-12T07:26:10.681Z,3.58
2017-01-12T07:26:37.267Z,3.58
2017-01-12T07:27:04.480Z,3.57
2017-01-12T07:27:32.982Z,3.56
2017-01-12T07:28:03.213Z,3.56
2017-01-12T07:28:34.496Z,3.52
2017-01-12T07:30:09.110Z,3.53
2017-01-12T07:30:35.663Z,3.52
2017-01-12T07:31:02.157Z,3.54
2017-01-12T07:31:34.440Z,3.53
2017-01-12T07:32:00.944Z,3.54
2017-01-12T07:32:30.092Z,3.54
2017-01-12T07:32:51.855Z,3.54
2017-01-12T07:33:23.130Z,3.53
2017-01-12T07:33:44.873Z,3.52
2017-01-12T07:34:06.607Z,3.53
2017-01-12T07:34:28.371Z,3.54
2017-01-12T07:34:50.108Z,3.53
2017-01-12T07:35:16.757Z,3.53
2017-01-12T07:35:39.503Z,3.52
2017-01-12T07:36:08.525Z,3.53
2017-01-12T07:36:36.035Z,3.54
2017-01-12T07:36:57.821Z,3.54
2017-01-12T07:37:19.565Z,3.53
2017-01-12T07:37:43.746Z,3.51
2017-01-12T07:38:10.256Z,3.51
2017-01-12T07:38:32.076Z,3.51
2017-01-12T07:38:55.795Z,3.54
2017-01-12T07:39:26.911Z,3.55
2017-01-12T07:39:48.666Z,3.56
2017-01-12T07:40:17.010Z,3.56
2017-01-12T07:40:38.807Z,3.58